Main page
METAR-TAF:

METAR-TAF

Airports :

Weeze, Germany

Weeze Airport

latitude: 51-36-09N, longitude: 006-08-32E, elevation: 32 m

Current weather observation

The report was made 1 hour and 25 minutes ago, at 22:50 UTC
Wind 5 kt from the North/Northeast, varying between North and East/Northeast
Temperature -1°C
Humidity 80%
Pressure 1024 hPa
Visibility 10 km or more
no clouds below 1500 m and no cumulonimbus

METAR: EDLV 222250Z 03005KT 350V060 CAVOK M01/M04 Q1024

Time: 01:15 (00:15 UTC)

Forecast

The report was made 7 hours and 15 minutes ago, at 17:00 UTC
Forecast valid from 22 at 18 UTC to 23 at 18 UTC
Wind 5 kt from the Northeast
Visibility 10 km or more
no clouds below 1500 m and no cumulonimbus
Becoming
from 23 at 09 UTC to 23 at 11 UTC
Wind 10 kt from the East/Northeast

TAF: EDLV 221700Z 2218/2318 04005KT CAVOK BECMG 2309/2311 06010KT

Weather observations and forecasts of more than 4000 airports (METAR and TAF reports).

The available stations are represented by yellow and red dots on the map.

Hover mouse over dot to see the name of the station.

Then click to see weather observations and forecasts.

To change the map : click on the green buttons with a black cross to zoom in, on the green button with a dash to zoom out, or on the green arrows for adjacent maps.


METAR-TAF: